KMY030 SKCL-SKBQ
Flight info
| Callsign | KMY030 |
|---|---|
| Flight time | N/A |
| Altitude | 15000 |
| Route | ULQ1B ULQ DCT RNG UW26 MRN UW3 VOVLU VOVLU4A |
| Aircraft | PA34/L-SDFGRY/S |
Departure
| Time | 2026-04-24 15:18 |
|---|---|
| Airport | Alfonso Bonilla Aragon International Airport (SKCL) |
Arrival
| Time | N/A |
|---|---|
| Airport | Ernesto Cortissoz International Airport (SKBQ) |
| Time | Latitude | Longitude | Altitude | Speed | Heading |
|---|---|---|---|---|---|
| 2026-04-24 15:10 | 3.53769 | -76.38612 | 2428 ft | 0 kts | 258° |
| 2026-04-24 15:11 | 3.53757 | -76.38619 | 2428 ft | 6 kts | 161° |
| 2026-04-24 15:11 | 3.53723 | -76.38534 | 2428 ft | 19 kts | 124° |
| 2026-04-24 15:12 | 3.53585 | -76.38463 | 2428 ft | 26 kts | 172° |
| 2026-04-24 15:12 | 3.53359 | -76.38462 | 2428 ft | 5 kts | 187° |
| 2026-04-24 15:12 | 3.53341 | -76.38463 | 2428 ft | 9 kts | 186° |
| 2026-04-24 15:13 | 3.53194 | -76.38510 | 2428 ft | 33 kts | 187° |
| 2026-04-24 15:13 | 3.52958 | -76.38530 | 2428 ft | 28 kts | 151° |
| 2026-04-24 15:13 | 3.52934 | -76.38420 | 2428 ft | 12 kts | 29° |
| 2026-04-24 15:13 | 3.52969 | -76.38403 | 2428 ft | 0 kts | 15° |
| 2026-04-24 15:14 | 3.52983 | -76.38399 | 2428 ft | 0 kts | 8° |
| 2026-04-24 15:16 | 3.52987 | -76.38399 | 2428 ft | 7 kts | 8° |
| 2026-04-24 15:16 | 3.53189 | -76.38364 | 2428 ft | 56 kts | 8° |
| 2026-04-24 15:17 | 3.53728 | -76.38273 | 2468 ft | 94 kts | 9° |
| 2026-04-24 15:17 | 3.54419 | -76.38155 | 2668 ft | 109 kts | 9° |
| 2026-04-24 15:17 | 3.55221 | -76.38017 | 2899 ft | 124 kts | 9° |
| 2026-04-24 15:17 | 3.55871 | -76.37905 | 3701 ft | 72 kts | 9° |
| 2026-04-24 15:18 | 3.56485 | -76.37799 | 3877 ft | 97 kts | 9° |
| 2026-04-24 15:18 | 3.57244 | -76.37669 | 3987 ft | 126 kts | 9° |
| 2026-04-24 15:18 | 3.58157 | -76.37511 | 4191 ft | 141 kts | 9° |
| 2026-04-24 15:18 | 3.59167 | -76.37330 | 4369 ft | 153 kts | 12° |
| 2026-04-24 15:19 | 3.60232 | -76.37121 | 4508 ft | 163 kts | 10° |
| 2026-04-24 15:19 | 3.61376 | -76.36914 | 4667 ft | 169 kts | 10° |
| 2026-04-24 15:19 | 3.62550 | -76.36706 | 4817 ft | 173 kts | 10° |
| 2026-04-24 15:19 | 3.63687 | -76.36505 | 4957 ft | 176 kts | 10° |
| 2026-04-24 15:20 | 3.64951 | -76.36282 | 5107 ft | 178 kts | 10° |
| 2026-04-24 15:20 | 3.66178 | -76.36064 | 5251 ft | 179 kts | 10° |
| 2026-04-24 15:20 | 3.67383 | -76.35851 | 5377 ft | 174 kts | 10° |
| 2026-04-24 15:20 | 3.68562 | -76.35640 | 5513 ft | 172 kts | 11° |
| 2026-04-24 15:21 | 3.69725 | -76.35381 | 5649 ft | 171 kts | 14° |
| 2026-04-24 15:21 | 3.70866 | -76.35079 | 5786 ft | 170 kts | 15° |
| 2026-04-24 15:21 | 3.72003 | -76.34758 | 5924 ft | 169 kts | 16° |
| 2026-04-24 15:21 | 3.73124 | -76.34431 | 6062 ft | 169 kts | 16° |
| 2026-04-24 15:22 | 3.74271 | -76.34093 | 6202 ft | 169 kts | 15° |
| 2026-04-24 15:22 | 3.75392 | -76.33759 | 6378 ft | 166 kts | 14° |
| 2026-04-24 15:22 | 3.76476 | -76.33434 | 6577 ft | 164 kts | 11° |
| 2026-04-24 15:23 | 3.78687 | -76.32770 | 6917 ft | 167 kts | 11° |
| 2026-04-24 15:23 | 3.80917 | -76.32028 | 7271 ft | 169 kts | 12° |
| 2026-04-24 15:23 | 3.82035 | -76.31647 | 7447 ft | 170 kts | 12° |
| 2026-04-24 15:24 | 3.85410 | -76.30492 | 7974 ft | 172 kts | 12° |
| 2026-04-24 15:25 | 3.87300 | -76.29845 | 8267 ft | 172 kts | 12° |
| 2026-04-24 15:25 | 3.89947 | -76.28937 | 8675 ft | 174 kts | 12° |
| 2026-04-24 15:26 | 3.93395 | -76.27754 | 9202 ft | 175 kts | 12° |
| 2026-04-24 15:27 | 3.96856 | -76.26567 | 9728 ft | 176 kts | 12° |
| 2026-04-24 15:27 | 4.00351 | -76.25368 | 10255 ft | 177 kts | 12° |
| 2026-04-24 15:28 | 4.05075 | -76.23750 | 10962 ft | 182 kts | 12° |
| 2026-04-24 15:29 | 4.06882 | -76.23130 | 11227 ft | 184 kts | 12° |
| 2026-04-24 15:30 | 4.10519 | -76.21748 | 11758 ft | 187 kts | 16° |
| 2026-04-24 15:31 | 4.14971 | -76.19872 | 12404 ft | 190 kts | 17° |
| 2026-04-24 15:32 | 4.20240 | -76.17633 | 13161 ft | 191 kts | 17° |
| 2026-04-24 15:33 | 4.24755 | -76.15711 | 13804 ft | 193 kts | 17° |
| 2026-04-24 15:33 | 4.28473 | -76.14129 | 14330 ft | 194 kts | 17° |
| 2026-04-24 15:34 | 4.30949 | -76.13075 | 14678 ft | 195 kts | 17° |
| 2026-04-24 15:35 | 4.34752 | -76.11459 | 15003 ft | 205 kts | 17° |
| 2026-04-24 15:35 | 4.37448 | -76.10314 | 15006 ft | 214 kts | 17° |
| 2026-04-24 15:35 | 4.38825 | -76.09727 | 15004 ft | 216 kts | 17° |
| 2026-04-24 15:36 | 4.40216 | -76.09133 | 15003 ft | 218 kts | 17° |
| 2026-04-24 15:36 | 4.43025 | -76.07932 | 15001 ft | 220 kts | 17° |
| 2026-04-24 15:36 | 4.44437 | -76.07330 | 15001 ft | 220 kts | 17° |
| 2026-04-24 15:37 | 4.45824 | -76.06738 | 15000 ft | 220 kts | 17° |
| 2026-04-24 15:37 | 4.47241 | -76.06133 | 15000 ft | 220 kts | 17° |
| 2026-04-24 15:37 | 4.48640 | -76.05530 | 15026 ft | 220 kts | 18° |
| 2026-04-24 15:37 | 4.50067 | -76.04920 | 15020 ft | 228 kts | 17° |
| 2026-04-24 15:38 | 4.51509 | -76.04313 | 14972 ft | 226 kts | 17° |
| 2026-04-24 15:38 | 4.52977 | -76.03687 | 14989 ft | 222 kts | 17° |
| 2026-04-24 15:38 | 4.54388 | -76.03084 | 14995 ft | 220 kts | 17° |
| 2026-04-24 15:38 | 4.55772 | -76.02493 | 14997 ft | 218 kts | 17° |
| 2026-04-24 15:39 | 4.57181 | -76.01893 | 14999 ft | 217 kts | 17° |
| 2026-04-24 15:39 | 4.58579 | -76.01298 | 14999 ft | 217 kts | 17° |
| 2026-04-24 15:39 | 4.59951 | -76.00713 | 14999 ft | 217 kts | 17° |
| 2026-04-24 15:39 | 4.61339 | -76.00122 | 15000 ft | 216 kts | 17° |
| 2026-04-24 15:40 | 4.62719 | -75.99535 | 15000 ft | 216 kts | 17° |
| 2026-04-24 15:40 | 4.64109 | -75.98943 | 15000 ft | 216 kts | 17° |
| 2026-04-24 15:40 | 4.65490 | -75.98355 | 15000 ft | 216 kts | 17° |
| 2026-04-24 15:40 | 4.66884 | -75.97761 | 15000 ft | 216 kts | 17° |
| 2026-04-24 15:41 | 4.68267 | -75.97171 | 15000 ft | 216 kts | 17° |
| 2026-04-24 15:41 | 4.69651 | -75.96582 | 15000 ft | 216 kts | 17° |
| 2026-04-24 15:41 | 4.71039 | -75.95990 | 15000 ft | 216 kts | 17° |
| 2026-04-24 15:41 | 4.72412 | -75.95405 | 15000 ft | 216 kts | 17° |
| 2026-04-24 15:42 | 4.73807 | -75.94811 | 15000 ft | 216 kts | 17° |
| 2026-04-24 15:42 | 4.75177 | -75.94226 | 15000 ft | 216 kts | 17° |
| 2026-04-24 15:42 | 4.76572 | -75.93632 | 15000 ft | 216 kts | 17° |
| 2026-04-24 15:42 | 4.77932 | -75.93052 | 15000 ft | 216 kts | 17° |
| 2026-04-24 15:43 | 4.79313 | -75.92463 | 15000 ft | 216 kts | 17° |
| 2026-04-24 15:43 | 4.80705 | -75.91870 | 15000 ft | 216 kts | 17° |
| 2026-04-24 15:43 | 4.82090 | -75.91279 | 15000 ft | 216 kts | 17° |
| 2026-04-24 15:43 | 4.83473 | -75.90689 | 15000 ft | 216 kts | 17° |
| 2026-04-24 15:44 | 4.84856 | -75.90099 | 15000 ft | 216 kts | 17° |
| 2026-04-24 15:44 | 4.86252 | -75.89504 | 15000 ft | 216 kts | 17° |
| 2026-04-24 15:44 | 4.87634 | -75.88915 | 15000 ft | 216 kts | 17° |
| 2026-04-24 15:44 | 4.89020 | -75.88323 | 15000 ft | 216 kts | 17° |
| 2026-04-24 15:45 | 4.90402 | -75.87734 | 15000 ft | 216 kts | 17° |
| 2026-04-24 15:45 | 4.91767 | -75.87152 | 15000 ft | 216 kts | 17° |
| 2026-04-24 15:45 | 4.93148 | -75.86563 | 15000 ft | 216 kts | 17° |
| 2026-04-24 15:45 | 4.94538 | -75.85970 | 15000 ft | 216 kts | 17° |
| 2026-04-24 15:46 | 4.95916 | -75.85382 | 15000 ft | 216 kts | 17° |
| 2026-04-24 15:46 | 4.97306 | -75.84789 | 15000 ft | 216 kts | 17° |
| 2026-04-24 15:46 | 4.98688 | -75.84199 | 15000 ft | 216 kts | 17° |
| 2026-04-24 15:46 | 5.00082 | -75.83604 | 15000 ft | 216 kts | 17° |
| 2026-04-24 15:47 | 5.01472 | -75.83011 | 15000 ft | 216 kts | 17° |
| 2026-04-24 15:47 | 5.02853 | -75.82422 | 15000 ft | 216 kts | 17° |
| 2026-04-24 15:47 | 5.04241 | -75.81830 | 15000 ft | 216 kts | 17° |
| 2026-04-24 15:47 | 5.05602 | -75.81249 | 15000 ft | 216 kts | 17° |
| 2026-04-24 15:48 | 5.06984 | -75.80659 | 15000 ft | 216 kts | 17° |
| 2026-04-24 15:48 | 5.08374 | -75.80066 | 15000 ft | 216 kts | 17° |
| 2026-04-24 15:48 | 5.09760 | -75.79475 | 15000 ft | 216 kts | 17° |
| 2026-04-24 15:48 | 5.11139 | -75.78886 | 15000 ft | 216 kts | 17° |
| 2026-04-24 15:49 | 5.12529 | -75.78293 | 15000 ft | 216 kts | 17° |
| 2026-04-24 15:49 | 5.13908 | -75.77704 | 15000 ft | 216 kts | 17° |
| 2026-04-24 15:49 | 5.15294 | -75.77113 | 15000 ft | 216 kts | 17° |
| 2026-04-24 15:49 | 5.16679 | -75.76521 | 15000 ft | 216 kts | 17° |
| 2026-04-24 15:50 | 5.18057 | -75.75933 | 15000 ft | 216 kts | 17° |
| 2026-04-24 15:50 | 5.19442 | -75.75342 | 15000 ft | 216 kts | 17° |
| 2026-04-24 15:50 | 5.20824 | -75.74752 | 15000 ft | 216 kts | 17° |
| 2026-04-24 15:50 | 5.22205 | -75.74162 | 15000 ft | 216 kts | 17° |
| 2026-04-24 15:51 | 5.23597 | -75.73568 | 15000 ft | 216 kts | 17° |
| 2026-04-24 15:51 | 5.24984 | -75.72976 | 15000 ft | 216 kts | 17° |
| 2026-04-24 15:51 | 5.26364 | -75.72387 | 15000 ft | 216 kts | 17° |
| 2026-04-24 15:51 | 5.27753 | -75.71793 | 15000 ft | 216 kts | 17° |
| 2026-04-24 15:52 | 5.29138 | -75.71202 | 15000 ft | 216 kts | 17° |
| 2026-04-24 15:52 | 5.30504 | -75.70618 | 15000 ft | 216 kts | 17° |
| 2026-04-24 15:52 | 5.31893 | -75.70025 | 15000 ft | 216 kts | 17° |
| 2026-04-24 15:52 | 5.33269 | -75.69438 | 15000 ft | 216 kts | 17° |
| 2026-04-24 15:53 | 5.34664 | -75.68842 | 15000 ft | 216 kts | 17° |
| 2026-04-24 15:53 | 5.36051 | -75.68249 | 15000 ft | 216 kts | 17° |
| 2026-04-24 15:53 | 5.37432 | -75.67659 | 15000 ft | 216 kts | 17° |
| 2026-04-24 15:53 | 5.38825 | -75.67064 | 15000 ft | 216 kts | 17° |
| 2026-04-24 15:54 | 5.40185 | -75.66483 | 15000 ft | 216 kts | 17° |
| 2026-04-24 15:54 | 5.41572 | -75.65891 | 15000 ft | 216 kts | 17° |
| 2026-04-24 15:54 | 5.42959 | -75.65299 | 15000 ft | 216 kts | 17° |
| 2026-04-24 15:54 | 5.44343 | -75.64707 | 15000 ft | 216 kts | 17° |
| 2026-04-24 15:55 | 5.45736 | -75.64112 | 15000 ft | 216 kts | 17° |
| 2026-04-24 15:55 | 5.47112 | -75.63524 | 15000 ft | 216 kts | 17° |
| 2026-04-24 15:55 | 5.48504 | -75.62930 | 15000 ft | 216 kts | 17° |
| 2026-04-24 15:55 | 5.49890 | -75.62337 | 15000 ft | 216 kts | 17° |
| 2026-04-24 15:56 | 5.51248 | -75.61757 | 15000 ft | 216 kts | 17° |
| 2026-04-24 15:56 | 5.52662 | -75.61153 | 15000 ft | 216 kts | 17° |
| 2026-04-24 15:56 | 5.54019 | -75.60573 | 15000 ft | 216 kts | 17° |
| 2026-04-24 15:56 | 5.55406 | -75.59980 | 15000 ft | 216 kts | 17° |
| 2026-04-24 15:57 | 5.56796 | -75.59386 | 15000 ft | 216 kts | 17° |
| 2026-04-24 15:57 | 5.58177 | -75.58796 | 15000 ft | 216 kts | 17° |
| 2026-04-24 15:57 | 5.59565 | -75.58203 | 15000 ft | 216 kts | 17° |
| 2026-04-24 15:57 | 5.60935 | -75.57618 | 15000 ft | 216 kts | 17° |
| 2026-04-24 15:58 | 5.62340 | -75.57017 | 15000 ft | 216 kts | 17° |
| 2026-04-24 15:58 | 5.63726 | -75.56425 | 15000 ft | 216 kts | 17° |
| 2026-04-24 15:58 | 5.65089 | -75.55842 | 15000 ft | 216 kts | 17° |
| 2026-04-24 15:58 | 5.66476 | -75.55250 | 15000 ft | 216 kts | 17° |
| 2026-04-24 15:59 | 5.67864 | -75.54656 | 15000 ft | 216 kts | 17° |
| 2026-04-24 15:59 | 5.69253 | -75.54063 | 15000 ft | 216 kts | 17° |
| 2026-04-24 15:59 | 5.70624 | -75.53477 | 15000 ft | 216 kts | 17° |
| 2026-04-24 15:59 | 5.72007 | -75.52886 | 15000 ft | 216 kts | 17° |
| 2026-04-24 16:00 | 5.73400 | -75.52291 | 15000 ft | 216 kts | 17° |
| 2026-04-24 16:00 | 5.74776 | -75.51703 | 15000 ft | 216 kts | 17° |
| 2026-04-24 16:00 | 5.76159 | -75.51112 | 15000 ft | 216 kts | 17° |
| 2026-04-24 16:00 | 5.77544 | -75.50520 | 15000 ft | 216 kts | 17° |
| 2026-04-24 16:01 | 5.78922 | -75.49932 | 15000 ft | 216 kts | 17° |
| 2026-04-24 16:01 | 5.80314 | -75.49337 | 15000 ft | 216 kts | 17° |
| 2026-04-24 16:01 | 5.81687 | -75.48750 | 15000 ft | 216 kts | 17° |
| 2026-04-24 16:01 | 5.83083 | -75.48154 | 15000 ft | 216 kts | 17° |
| 2026-04-24 16:02 | 5.84459 | -75.47567 | 15000 ft | 216 kts | 17° |
| 2026-04-24 16:02 | 5.85863 | -75.46968 | 15000 ft | 216 kts | 17° |
| 2026-04-24 16:02 | 5.87233 | -75.46384 | 15000 ft | 216 kts | 17° |
| 2026-04-24 16:02 | 5.88616 | -75.45794 | 15000 ft | 216 kts | 17° |
| 2026-04-24 16:03 | 5.89996 | -75.45206 | 15000 ft | 216 kts | 17° |
| 2026-04-24 16:03 | 5.91384 | -75.44616 | 15000 ft | 216 kts | 17° |
| 2026-04-24 16:03 | 5.92778 | -75.44024 | 15000 ft | 216 kts | 17° |
| 2026-04-24 16:03 | 5.94167 | -75.43435 | 15000 ft | 216 kts | 17° |
| 2026-04-24 16:04 | 5.95536 | -75.42857 | 15000 ft | 216 kts | 17° |
| 2026-04-24 16:04 | 5.96919 | -75.42262 | 15000 ft | 217 kts | 18° |
| 2026-04-24 16:04 | 5.98292 | -75.41626 | 15000 ft | 217 kts | 19° |
| 2026-04-24 16:04 | 5.99654 | -75.40976 | 15000 ft | 217 kts | 20° |
| 2026-04-24 16:05 | 6.02376 | -75.39663 | 15000 ft | 217 kts | 20° |
| 2026-04-24 16:05 | 6.03744 | -75.39003 | 15000 ft | 217 kts | 20° |
| 2026-04-24 16:06 | 6.06474 | -75.37687 | 15000 ft | 217 kts | 20° |
| 2026-04-24 16:06 | 6.07837 | -75.37031 | 15000 ft | 217 kts | 20° |
| 2026-04-24 16:06 | 6.10563 | -75.35722 | 15000 ft | 217 kts | 20° |
| 2026-04-24 16:07 | 6.11925 | -75.35069 | 15000 ft | 217 kts | 20° |
| 2026-04-24 16:07 | 6.12685 | -75.34705 | 15000 ft | 217 kts | 20° |